Time;durP1;ratioP1;P1;durP2;ratioP2;P2;SDS_P1;SDS_P2;PMS_P1;PMS_P2;Temp;Humidity;BMP_temperature;BMP_pressure;BME280_temperature;BME280_humidity;BME280_pressure;Samples;Min_cycle;Max_cycle;Signal;HPM_P1;HPM_P2
2021/07/31 00:02:08;;;;;;;9.03;8.03;;;;;;;;;;5015722;28;20951;-90
2021/07/31 00:04:35;;;;;;;12.90;8.30;;;;;;;;;;5018552;28;20447;-91
2021/07/31 00:07:02;;;;;;;7.83;7.03;;;;;;;;;;5014465;28;20440;-91
2021/07/31 00:09:30;;;;;;;9.50;8.60;;;;;;;;;;5018203;28;20439;-93
2021/07/31 00:11:57;;;;;;;10.63;7.53;;;;;;;;;;5018480;28;20456;-91
2021/07/31 00:14:24;;;;;;;9.83;6.77;;;;;;;;;;5015378;28;20466;-92
2021/07/31 00:16:52;;;;;;;8.77;7.70;;;;;;;;;;5018738;28;20448;-93
2021/07/31 00:19:19;;;;;;;14.30;7.53;;;;;;;;;;5019153;28;20457;-91
2021/07/31 00:21:46;;;;;;;8.43;7.60;;;;;;;;;;5015675;28;20499;-94
2021/07/31 00:24:13;;;;;;;8.83;7.03;;;;;;;;;;5019146;28;20467;-91
2021/07/31 00:26:40;;;;;;;11.70;7.27;;;;;;;;;;5017946;28;20963;-93
2021/07/31 00:29:08;;;;;;;9.40;8.37;;;;;;;;;;5018220;28;20432;-92
2021/07/31 00:31:35;;;;;;;7.93;6.73;;;;;;;;;;5018300;28;20460;-92
2021/07/31 00:34:03;;;;;;;8.67;7.87;;;;;;;;;;5019522;28;20487;-91
2021/07/31 00:36:30;;;;;;;8.87;7.87;;;;;;;;;;5025215;28;20971;-92
2021/07/31 00:38:58;;;;;;;10.43;8.40;;;;;;;;;;5023940;28;20479;-92
2021/07/31 00:41:25;;;;;;;8.60;7.30;;;;;;;;;;5021960;28;20502;-91
2021/07/31 00:43:52;;;;;;;11.50;6.87;;;;;;;;;;5019275;28;20479;-92
2021/07/31 00:46:19;;;;;;;6.67;6.07;;;;;;;;;;5017976;28;20952;-93
2021/07/31 00:48:46;;;;;;;6.70;5.87;;;17.20;99.90;;;;;;5013627;28;20452;-93
2021/07/31 00:51:16;;;;;;;5.90;5.10;;;17.20;99.90;;;;;;5012669;28;20463;-93
2021/07/31 00:53:43;;;;;;;6.30;5.20;;;17.40;99.90;;;;;;5012769;28;20824;-91
2021/07/31 00:56:10;;;;;;;6.03;5.23;;;;;;;;;;5012507;28;20453;-92
2021/07/31 00:58:38;;;;;;;5.37;4.90;;;;;;;;;;5017651;28;20994;-90
2021/07/31 01:01:05;;;;;;;5.17;4.40;;;;;;;;;;5012303;28;20563;-91
2021/07/31 01:03:32;;;;;;;7.40;5.53;;;;;;;;;;5017035;28;20463;-92
2021/07/31 01:05:59;;;;;;;11.50;4.23;;;;;;;;;;5012736;28;20444;-94
2021/07/31 01:08:28;;;;;;;5.13;4.63;;;;;;;;;;5014762;28;20476;-92
2021/07/31 01:10:55;;;;;;;5.47;4.97;;;17.30;99.90;;;;;;5017119;28;20460;-94
2021/07/31 01:13:22;;;;;;;6.73;5.10;;;;;;;;;;5016865;28;20452;-92
2021/07/31 01:15:59;;;;;;;5.80;5.07;;;17.30;99.90;;;;;;5016890;28;20952;-91
2021/07/31 01:18:27;;;;;;;6.77;5.27;;;17.20;99.90;;;;;;5016659;28;20440;-90
2021/07/31 01:20:54;;;;;;;7.07;5.77;;;;;;;;;;5015436;28;20484;-90
2021/07/31 01:23:23;;;;;;;8.03;5.37;;;;;;;;;;5014667;28;20463;-91
2021/07/31 01:25:50;;;;;;;5.97;5.37;;;;;;;;;;5013538;28;20460;-91
2021/07/31 01:28:17;;;;;;;6.33;5.37;;;;;;;;;;5016645;28;20456;-91
2021/07/31 01:30:44;;;;;;;6.57;5.93;;;;;;;;;;5016348;28;20452;-91
2021/07/31 01:33:11;;;;;;;7.17;5.60;;;;;;;;;;5016343;28;20451;-94
2021/07/31 01:35:39;;;;;;;6.90;5.80;;;;;;;;;;5012269;28;20432;-91
2021/07/31 01:38:06;;;;;;;6.80;5.07;;;;;;;;;;5016332;28;20433;-91
2021/07/31 01:40:34;;;;;;;5.93;5.43;;;;;;;;;;5016413;28;20480;-92
2021/07/31 01:43:02;;;;;;;7.70;5.60;;;;;;;;;;5016276;28;20460;-90
2021/07/31 01:45:29;;;;;;;6.57;5.43;;;;;;;;;;5015953;28;20480;-91
2021/07/31 01:47:56;;;;;;;6.10;5.50;;;;;;;;;;5016230;28;20459;-92
2021/07/31 01:50:23;;;;;;;7.33;5.60;;;;;;;;;;5012343;28;20456;-90
2021/07/31 01:52:50;;;;;;;5.30;4.77;;;;;;;;;;5016174;28;20795;-90
2021/07/31 01:55:17;;;;;;;5.60;4.93;;;;;;;;;;5016071;28;20440;-90
2021/07/31 01:57:45;;;;;;;5.70;4.53;;;16.40;99.90;;;;;;5015777;28;20451;-90
2021/07/31 02:00:13;;;;;;;6.27;4.90;;;;;;;;;;5011713;28;20453;-91
2021/07/31 02:02:40;;;;;;;6.10;4.93;;;;;;;;;;5015796;28;20461;-91
2021/07/31 02:05:07;;;;;;;6.77;4.60;;;;;;;;;;5013287;28;20463;-90
2021/07/31 02:07:35;;;;;;;5.83;4.70;;;;;;;;;;5012934;28;21091;-91
2021/07/31 02:10:02;;;;;;;5.73;4.80;;;;;;;;;;5015884;28;20437;-91
2021/07/31 02:12:29;;;;;;;5.70;4.40;;;;;;;;;;5015496;28;20448;-91
2021/07/31 02:14:57;;;;;;;9.30;4.67;;;;;;;;;;5015789;28;20939;-92
2021/07/31 02:17:24;;;;;;;4.73;4.07;;;;;;;;;;5012440;28;20433;-90
2021/07/31 02:19:51;;;;;;;4.43;4.03;;;;;;;;;;5015242;28;20436;-91
2021/07/31 02:22:18;;;;;;;6.53;4.83;;;;;;;;;;5016216;28;21002;-92
2021/07/31 02:24:45;;;;;;;6.83;4.97;;;;;;;;;;5012591;28;20454;-91
2021/07/31 02:27:13;;;;;;;6.40;4.70;;;;;;;;;;5015338;28;20449;-90
2021/07/31 02:29:40;;;;;;;8.53;5.23;;;;;;;;;;5015579;28;20440;-91
2021/07/31 02:32:09;;;;;;;8.07;4.63;;;15.60;99.90;;;;;;5015136;28;20428;-90
2021/07/31 02:34:36;;;;;;;6.50;4.90;;;;;;;;;;5009743;28;20452;-91
2021/07/31 02:37:03;;;;;;;5.30;4.10;;;;;;;;;;5009183;28;20448;-92
2021/07/31 02:39:30;;;;;;;6.67;3.70;;;;;;;;;;5015257;28;20432;-91
2021/07/31 02:41:57;;;;;;;6.60;5.03;;;;;;;;;;5015122;28;20483;-93
2021/07/31 02:44:25;;;;;;;3.50;3.20;;;;;;;;;;5015039;28;20488;-92
2021/07/31 02:46:52;;;;;;;8.63;4.37;;;;;;;;;;5012141;28;20439;-90
2021/07/31 02:49:20;;;;;;;8.53;3.30;;;;;;;;;;5015047;28;20448;-90
2021/07/31 02:51:48;;;;;;;7.33;3.43;;;;;;;;;;5012681;28;20463;-91
2021/07/31 02:54:15;;;;;;;3.63;2.90;;;;;;;;;;5011794;28;20437;-93
2021/07/31 02:56:43;;;;;;;4.27;2.97;;;;;;;;;;5012252;28;20476;-91
2021/07/31 02:59:10;;;;;;;8.90;2.90;;;;;;;;;;5011910;28;20457;-91
2021/07/31 03:01:37;;;;;;;3.53;2.30;;;;;;;;;;5014796;28;20848;-92
2021/07/31 03:04:04;;;;;;;8.50;2.90;;;;;;;;;;5011805;28;20490;-92
2021/07/31 03:06:32;;;;;;;8.10;3.10;;;;;;;;;;5010908;28;21045;-91
2021/07/31 03:09:00;;;;;;;6.60;3.47;;;;;;;;;;5012085;28;20447;-92
2021/07/31 03:11:27;;;;;;;7.03;2.80;;;;;;;;;;5014784;28;20460;-91
2021/07/31 03:13:54;;;;;;;4.70;3.33;;;;;;;;;;5014894;28;20439;-92
2021/07/31 03:16:21;;;;;;;4.13;2.70;;;;;;;;;;5011759;28;20429;-91
2021/07/31 03:18:48;;;;;;;3.73;3.00;;;;;;;;;;5015013;28;20797;-92
2021/07/31 03:21:15;;;;;;;5.80;2.70;;;;;;;;;;5014162;28;20480;-93
2021/07/31 03:23:44;;;;;;;3.30;2.10;;;;;;;;;;5012796;28;20461;-91
2021/07/31 03:26:11;;;;;;;2.50;2.30;;;;;;;;;;5014741;28;20444;-91
2021/07/31 03:28:38;;;;;;;2.10;1.80;;;;;;;;;;5012542;28;20464;-94
2021/07/31 03:31:05;;;;;;;4.10;2.50;;;;;;;;;;5011527;28;20472;-92
2021/07/31 03:33:32;;;;;;;7.43;2.73;;;;;;;;;;5014878;28;20440;-92
2021/07/31 03:35:59;;;;;;;6.47;2.47;;;;;;;;;;5014166;28;20460;-91
2021/07/31 03:38:26;;;;;;;3.80;2.50;;;;;;;;;;5012786;28;20459;-90
2021/07/31 03:40:55;;;;;;;6.70;2.30;;;;;;;;;;5011783;28;20483;-91
2021/07/31 03:43:22;;;;;;;5.37;2.07;;;;;;;;;;5014441;28;20455;-92
2021/07/31 03:45:49;;;;;;;4.90;2.07;;;;;;;;;;5014685;28;20441;-91
2021/07/31 03:48:16;;;;;;;3.83;2.20;;;;;;;;;;5011730;28;20433;-90
2021/07/31 03:50:43;;;;;;;4.57;2.20;;;;;;;;;;5010853;28;20467;-91
2021/07/31 03:53:10;;;;;;;5.10;2.20;;;;;;;;;;5012635;28;20464;-91
2021/07/31 03:55:37;;;;;;;2.90;1.97;;;;;;;;;;5011839;28;20837;-92
2021/07/31 03:58:06;;;;;;;3.87;2.33;;;;;;;;;;5011857;28;20443;-92
2021/07/31 04:00:33;;;;;;;7.37;2.63;;;;;;;;;;5014633;28;20448;-91
2021/07/31 04:03:00;;;;;;;4.60;2.70;;;;;;;;;;5011157;28;20499;-92
2021/07/31 04:05:27;;;;;;;6.20;2.10;;;;;;;;;;5013849;28;20467;-91
2021/07/31 04:07:54;;;;;;;2.70;1.73;;;;;;;;;;5014502;28;20812;-92
2021/07/31 04:10:22;;;;;;;3.50;2.10;;;;;;;;;;5011258;28;20461;-91
2021/07/31 04:12:49;;;;;;;4.67;2.60;;;;;;;;;;5012389;28;20460;-92
2021/07/31 04:15:17;;;;;;;2.73;2.40;;;13.80;99.90;;;;;;5014579;28;20459;-93
2021/07/31 04:17:44;;;;;;;3.40;2.10;;;;;;;;;;5011294;28;20471;-92
2021/07/31 04:20:12;;;;;;;4.33;2.23;;;13.00;99.90;;;;;;5013513;28;20448;-94
2021/07/31 04:22:39;;;;;;;4.43;2.20;;;;;;;;;;5008455;28;20488;-91
2021/07/31 04:25:07;;;;;;;5.70;2.07;;;;;;;;;;5011204;28;20433;-93
2021/07/31 04:27:35;;;;;;;5.10;2.37;;;;;;;;;;5008580;28;20487;-91
2021/07/31 04:30:02;;;;;;;3.53;2.23;;;;;;;;;;5014412;28;20451;-92
2021/07/31 04:32:30;;;;;;;3.63;2.10;;;13.80;99.90;;;;;;5014068;28;20488;-91
2021/07/31 04:34:57;;;;;;;7.63;2.23;;;;;;;;;;5013099;28;20479;-91
2021/07/31 04:37:24;;;;;;;5.10;2.20;;;;;;;;;;5014077;28;20424;-91
2021/07/31 04:39:51;;;;;;;2.77;1.80;;;;;;;;;;5011344;28;20802;-91
2021/07/31 04:42:18;;;;;;;3.60;2.07;;;;;;;;;;5013720;28;20479;-92
2021/07/31 04:44:46;;;;;;;3.20;2.23;;;;;;;;;;5014231;28;20492;-91
2021/07/31 04:47:14;;;;;;;6.10;2.03;;;14.10;99.90;;;;;;5017744;28;20928;-91
2021/07/31 04:49:42;;;;;;;2.40;1.50;;;;;;;;;;5015222;28;20429;-92
2021/07/31 04:52:10;;;;;;;6.27;2.10;;;;;;;;;;5014453;28;20448;-91
2021/07/31 04:54:41;;;;;;;3.97;1.93;;;14.40;99.90;;;;;;5014015;28;20490;-91
2021/07/31 04:57:09;;;;;;;4.60;2.23;;;;;;;;;;5014475;28;20479;-92
2021/07/31 04:59:36;;;;;;;4.20;2.10;;;;;;;;;;5017439;28;20591;-91
2021/07/31 05:02:03;;;;;;;4.00;2.20;;;;;;;;;;5014539;28;20492;-92
2021/07/31 05:04:31;;;;;;;4.20;2.30;;;14.60;99.90;;;;;;5018745;28;20460;-92
2021/07/31 05:07:00;;;;;;;2.77;1.80;;;;;;;;;;5010868;28;20481;-92
2021/07/31 05:09:27;;;;;;;6.83;1.80;;;;;;;;;;5019693;28;20456;-93
2021/07/31 05:11:54;;;;;;;2.03;1.70;;;;;;;;;;5018900;28;20473;-93
2021/07/31 05:14:21;;;;;;;4.90;2.10;;;;;;;;;;5013786;28;20494;-92
2021/07/31 05:16:48;;;;;;;6.07;2.37;;;;;;;;;;5016704;28;20452;-92
2021/07/31 05:19:15;;;;;;;4.67;2.10;;;;;;;;;;5013934;28;20660;-91
2021/07/31 05:21:43;;;;;;;4.93;1.80;;;;;;;;;;5016118;28;20490;-93
2021/07/31 05:24:11;;;;;;;5.33;1.70;;;15.20;99.90;;;;;;5013406;28;20432;-92
2021/07/31 05:26:38;;;;;;;2.77;1.60;;;;;;;;;;5013726;28;20503;-93
2021/07/31 05:29:05;;;;;;;2.40;1.60;;;;;;;;;;5013967;28;20456;-91
2021/07/31 05:31:32;;;;;;;2.50;1.80;;;;;;;;;;5009926;28;20433;-90
2021/07/31 05:34:00;;;;;;;8.97;2.33;;;;;;;;;;5016385;28;20932;-91
2021/07/31 05:36:27;;;;;;;3.67;2.03;;;;;;;;;;5014830;28;20444;-91
2021/07/31 05:38:54;;;;;;;5.20;1.77;;;;;;;;;;5015474;28;20971;-89
2021/07/31 05:41:22;;;;;;;4.13;1.70;;;16.40;99.90;;;;;;5015702;28;20452;-89
2021/07/31 05:43:50;;;;;;;2.57;1.70;;;;;;;;;;5011022;28;20488;-88
2021/07/31 05:46:18;;;;;;;3.03;2.10;;;;;;;;;;5015847;28;20459;-89
2021/07/31 05:48:45;;;;;;;8.53;2.83;;;;;;;;;;5016347;28;20865;-86
2021/07/31 05:51:13;;;;;;;3.23;1.90;;;;;;;;;;5015381;28;20452;-89
2021/07/31 05:53:40;;;;;;;2.40;1.80;;;;;;;;;;5016365;28;20452;-89
2021/07/31 05:56:08;;;;;;;2.43;1.73;;;17.70;99.90;;;;;;5015741;28;20456;-90
2021/07/31 05:58:36;;;;;;;6.77;2.27;;;18.10;99.90;;;;;;5012429;28;20452;-89
2021/07/31 06:01:05;;;;;;;5.07;2.53;;;18.00;99.90;;;;;;5012958;28;20502;-88
2021/07/31 06:03:32;;;;;;;4.20;1.73;;;;;;;;;;4952461;28;21124;-88
2021/07/31 06:05:59;;;;;;;3.33;1.80;;;;;;;;;;4951835;28;20571;-87
2021/07/31 06:08:26;;;;;;;7.93;2.00;;;;;;;;;;4952069;28;20510;-88
2021/07/31 06:10:59;;;;;;;3.80;2.30;;;18.00;99.90;;;;;;4954844;28;20459;-86
2021/07/31 06:13:27;;;;;;;3.97;1.97;;;;;;;;;;4954889;28;20443;-87
2021/07/31 06:15:55;;;;;;;2.90;1.63;;;18.20;99.90;;;;;;4954799;28;20470;-89
2021/07/31 06:18:22;;;;;;;2.07;1.87;;;;;;;;;;4951945;28;20443;-89
2021/07/31 06:20:49;;;;;;;6.50;2.40;;;;;;;;;;4950911;28;20505;-89
2021/07/31 06:23:17;;;;;;;3.67;1.70;;;;;;;;;;4954307;29;20518;-89
2021/07/31 06:25:44;;;;;;;4.43;2.00;;;;;;;;;;4954447;28;20443;-90
2021/07/31 06:28:11;;;;;;;3.40;1.70;;;;;;;;;;4985893;28;20453;-93
2021/07/31 06:30:38;;;;;;;8.00;2.00;;;;;;;;;;5015067;28;20440;-89
2021/07/31 06:33:06;;;;;;;7.20;2.27;;;18.40;99.90;;;;;;5015444;28;20459;-89
2021/07/31 06:35:33;;;;;;;2.20;1.40;;;;;;;;;;5011672;28;20433;-87
2021/07/31 06:38:01;;;;;;;4.87;2.17;;;;;;;;;;5014652;28;20455;-90
2021/07/31 06:40:28;;;;;;;3.73;1.93;;;;;;;;;;5014635;28;20444;-89
2021/07/31 06:42:55;;;;;;;2.33;1.90;;;;;;;;;;5014245;28;20496;-89
2021/07/31 06:45:22;;;;;;;3.03;1.70;;;;;;;;;;5011839;28;20484;-90
2021/07/31 06:47:49;;;;;;;5.27;1.83;;;;;;;;;;5014323;28;20944;-89
2021/07/31 06:50:17;;;;;;;4.30;1.60;;;20.10;99.90;;;;;;5013812;28;20444;-90
2021/07/31 06:52:44;;;;;;;4.03;1.97;;;;;;;;;;5012403;28;20816;-90
2021/07/31 06:55:12;;;;;;;3.20;2.00;;;19.90;99.90;;;;;;5014732;28;20448;-90
2021/07/31 06:57:39;;;;;;;2.40;1.70;;;;;;;;;;5015356;28;20460;-91
2021/07/31 07:00:07;;;;;;;3.20;2.03;;;20.00;99.90;;;;;;5014701;28;20464;-91
2021/07/31 07:02:34;;;;;;;3.80;2.07;;;;;;;;;;5007373;28;20491;-90
2021/07/31 07:05:02;;;;;;;7.03;2.43;;;;;;;;;;5013784;28;20988;-92
2021/07/31 07:07:30;;;;;;;5.47;1.80;;;20.20;99.90;;;;;;5014169;28;20444;-90
2021/07/31 07:09:57;;;;;;;5.40;1.77;;;;;;;;;;5014613;28;20444;-91
2021/07/31 07:12:25;;;;;;;2.03;1.83;;;;;;;;;;5010676;28;20432;-92
2021/07/31 07:14:52;;;;;;;4.40;1.80;;;;;;;;;;5014257;28;20440;-92
2021/07/31 07:17:19;;;;;;;3.50;1.80;;;;;;;;;;5014463;28;20456;-91
2021/07/31 07:19:46;;;;;;;4.00;1.80;;;;;;;;;;5012887;28;20467;-90
2021/07/31 07:22:13;;;;;;;3.07;2.10;;;;;;;;;;5014295;28;20448;-91
2021/07/31 07:24:41;;;;;;;2.70;1.97;;;20.60;99.90;;;;;;5014605;28;20904;-93
2021/07/31 07:27:08;;;;;;;3.30;2.40;;;;;;;;;;5009925;28;20456;-91
2021/07/31 07:29:35;;;;;;;6.90;1.80;;;20.40;99.90;;;;;;5013903;28;20436;-91
2021/07/31 07:32:03;;;;;;;8.10;2.13;;;;;;;;;;5014114;28;20464;-91
2021/07/31 07:34:30;;;;;;;4.73;2.07;;;;;;;;;;5013987;28;20455;-90
2021/07/31 07:36:57;;;;;;;4.20;1.80;;;;;;;;;;5013711;28;20448;-90
2021/07/31 07:39:24;;;;;;;4.70;1.60;;;;;;;;;;5014142;28;20786;-91
2021/07/31 07:41:52;;;;;;;3.67;1.70;;;20.30;99.90;;;;;;5014267;28;20440;-93
2021/07/31 07:44:19;;;;;;;5.70;1.80;;;;;;;;;;5010809;28;20550;-90
2021/07/31 07:46:46;;;;;;;1.37;1.27;;;;;;;;;;5013686;28;20912;-90
2021/07/31 07:49:13;;;;;;;2.63;1.30;;;;;;;;;;5011061;28;21026;-91
2021/07/31 07:51:40;;;;;;;2.27;1.70;;;;;;;;;;5012556;28;20449;-88
2021/07/31 07:54:07;;;;;;;2.80;1.67;;;;;;;;;;5009104;28;20459;-91
2021/07/31 07:56:35;;;;;;;2.43;1.33;;;;;;;;;;4997798;28;20445;-88
2021/07/31 07:59:04;;;;;;;3.23;1.57;;;20.40;99.90;;;;;;4993854;28;20813;-89
2021/07/31 08:01:32;;;;;;;1.40;0.83;;;;;;;;;;5007183;28;20441;-86
2021/07/31 08:03:59;;;;;;;3.30;1.40;;;;;;;;;;5013684;28;20570;-89
2021/07/31 08:06:26;;;;;;;3.30;1.30;;;;;;;;;;5012745;28;20467;-91
2021/07/31 08:08:54;;;;;;;3.73;1.20;;;;;;;;;;5008695;28;20459;-90
2021/07/31 08:11:21;;;;;;;4.40;1.40;;;;;;;;;;5013555;28;20823;-84
2021/07/31 08:13:48;;;;;;;2.00;1.33;;;;;;;;;;5015334;28;20451;-89
2021/07/31 08:16:16;;;;;;;3.00;1.47;;;;;;;;;;5016189;28;20460;-91
2021/07/31 08:18:43;;;;;;;5.37;2.43;;;;;;;;;;5017735;28;20923;-92
2021/07/31 08:21:10;;;;;;;4.80;1.60;;;;;;;;;;5016048;28;20448;-89
2021/07/31 08:23:38;;;;;;;4.60;1.70;;;;;;;;;;5016711;28;20523;-87
2021/07/31 08:26:09;;;;;;;5.13;1.20;;;;;;;;;;5016653;28;20928;-87
2021/07/31 08:28:37;;;;;;;2.93;1.63;;;;;;;;;;5016226;28;20448;-86
2021/07/31 08:31:05;;;;;;;2.20;1.10;;;;;;;;;;5017233;28;20606;-91
2021/07/31 08:33:35;;;;;;;2.40;1.20;;;21.40;99.90;;;;;;5014194;28;20456;-88
2021/07/31 08:36:03;;;;;;;2.23;1.27;;;21.80;99.90;;;;;;5015402;28;20514;-92
2021/07/31 08:38:29;;;;;;;1.90;1.20;;;21.50;99.90;;;;;;5017476;28;20964;-85
2021/07/31 08:40:57;;;;;;;3.00;1.40;;;;;;;;;;5017045;28;20444;-86
2021/07/31 08:43:25;;;;;;;5.23;1.57;;;;;;;;;;5015942;28;20991;-88
2021/07/31 08:45:52;;;;;;;3.50;1.70;;;;;;;;;;5016372;28;20448;-82
2021/07/31 08:48:19;;;;;;;3.47;1.60;;;20.90;99.90;;;;;;5016492;28;20475;-85
2021/07/31 08:50:50;;;;;;;6.47;1.77;;;21.00;99.90;;;;;;5016354;28;20437;-87
2021/07/31 08:53:17;;;;;;;3.10;1.37;;;;;;;;;;5017739;28;20456;-91
2021/07/31 08:55:45;;;;;;;2.40;1.40;;;;;;;;;;5015398;28;20457;-89
2021/07/31 08:58:14;;;;;;;6.37;1.50;;;;;;;;;;5019760;28;20507;-91
2021/07/31 09:00:41;;;;;;;3.20;1.20;;;;;;;;;;5020955;28;20488;-91
2021/07/31 09:03:09;;;;;;;4.50;2.03;;;22.50;99.90;;;;;;5027168;28;20995;-91
2021/07/31 09:05:38;;;;;;;1.53;1.30;;;22.50;99.90;;;;;;5024344;28;20495;-88
2021/07/31 09:08:08;;;;;;;1.80;1.40;;;22.60;99.20;;;;;;5029076;28;20475;-89
2021/07/31 09:10:36;;;;;;;2.00;1.50;;;22.70;99.90;;;;;;5028280;28;20452;-91
2021/07/31 09:13:05;;;;;;;1.30;1.17;;;22.50;99.40;;;;;;5017457;28;20469;-87
2021/07/31 09:15:36;;;;;;;3.13;1.60;;;21.60;99.90;;;;;;5017220;28;20503;-91
2021/07/31 09:18:24;;;;;;;5.80;1.50;;;21.70;99.90;;;;;;5018029;28;20456;-90
2021/07/31 09:21:03;;;;;;;2.17;1.53;;;23.00;99.90;;;;;;5013282;28;20451;-92
2021/07/31 09:23:46;;;;;;;4.77;1.70;;;23.90;99.90;;;;;;5016686;28;20487;-88
2021/07/31 09:26:15;;;;;;;2.43;1.53;;;23.90;98.70;;;;;;5012462;28;20456;-93
2021/07/31 09:28:42;;;;;;;2.93;1.30;;;;;;;;;;5012510;28;20440;-86
2021/07/31 09:31:14;;;;;;;4.50;1.73;;;23.50;97.20;;;;;;5012388;28;20448;-90
2021/07/31 09:33:44;;;;;;;5.47;1.33;;;24.00;99.90;;;;;;5015509;28;20797;-92
2021/07/31 09:36:11;;;;;;;3.23;1.33;;;;;;;;;;5013359;28;20465;-92
2021/07/31 09:38:39;;;;;;;2.50;1.10;;;23.50;95.90;;;;;;5022160;28;20452;-88
2021/07/31 09:41:28;;;;;;;4.13;1.70;;;22.90;97.00;;;;;;5018572;28;20464;-88
2021/07/31 09:44:07;;;;;;;2.93;1.47;;;22.70;99.90;;;;;;5021996;28;20496;-88
2021/07/31 09:46:39;;;;;;;3.70;1.50;;;23.40;95.20;;;;;;5033873;28;20455;-89
2021/07/31 09:49:08;;;;;;;2.47;1.30;;;22.80;95.90;;;;;;5021237;28;20444;-90
2021/07/31 09:51:37;;;;;;;1.63;1.33;;;22.80;96.00;;;;;;5019496;28;20444;-91
2021/07/31 09:54:07;;;;;;;3.23;1.50;;;23.40;97.70;;;;;;5020023;28;20788;-89
2021/07/31 09:56:40;;;;;;;3.00;1.50;;;23.30;99.90;;;;;;5017049;28;20456;-89
2021/07/31 09:59:08;;;;;;;2.23;1.50;;;24.20;96.50;;;;;;4995815;28;20531;-88
2021/07/31 10:01:37;;;;;;;1.83;1.37;;;23.60;94.50;;;;;;4995643;28;20430;-91
2021/07/31 10:04:04;;;;;;;4.17;1.40;;;;;;;;;;5000672;28;20500;-92
2021/07/31 10:06:31;;;;;;;2.47;1.47;;;;;;;;;;4997420;28;20441;-91
2021/07/31 10:08:59;;;;;;;2.53;1.30;;;;;;;;;;5001481;28;20462;-93
2021/07/31 10:11:28;;;;;;;2.37;1.60;;;22.70;96.10;;;;;;4998306;28;20507;-91
2021/07/31 10:13:56;;;;;;;3.23;1.30;;;22.80;97.10;;;;;;4992037;28;20496;-92
2021/07/31 10:16:24;;;;;;;6.70;1.90;;;;;;;;;;4997696;28;20457;-92
2021/07/31 10:19:02;;;;;;;3.63;1.50;;;24.00;95.60;;;;;;4989407;28;20453;-90
2021/07/31 10:21:31;;;;;;;2.50;1.40;;;24.20;94.50;;;;;;5003521;28;20453;-92
2021/07/31 10:23:59;;;;;;;1.80;1.20;;;25.00;93.80;;;;;;4998231;28;20485;-91
2021/07/31 10:26:27;;;;;;;27.23;10.17;;;24.90;93.40;;;;;;4994660;28;20442;-94
2021/07/31 10:28:54;;;;;;;2.30;1.37;;;;;;;;;;4997480;28;20480;-90
2021/07/31 10:31:33;;;;;;;2.20;1.57;;;24.30;93.50;;;;;;4998578;28;20445;-92
2021/07/31 10:34:01;;;;;;;4.20;1.50;;;24.60;93.60;;;;;;4995538;28;20975;-91
2021/07/31 10:36:30;;;;;;;3.10;1.10;;;24.00;91.90;;;;;;5002374;28;20441;-91
2021/07/31 10:38:57;;;;;;;2.00;1.20;;;;;;;;;;4995222;28;20449;-90
2021/07/31 10:41:55;;;;;;;2.20;1.20;;;22.50;95.60;;;;;;4993588;28;20437;-90
2021/07/31 10:44:22;;;;;;;1.63;1.10;;;;;;;;;;5000128;28;20503;-92
2021/07/31 10:46:51;;;;;;;3.60;1.80;;;;;;;;;;5004226;28;20448;-91
2021/07/31 10:49:39;;;;;;;2.30;1.50;;;24.70;93.80;;;;;;5003948;28;20449;-92
2021/07/31 10:52:06;;;;;;;2.13;1.20;;;;;;;;;;4991116;28;20461;-94
2021/07/31 10:54:58;;;;;;;1.80;1.10;;;24.20;91.10;;;;;;5001447;28;20452;-92
2021/07/31 10:58:05;;;;;;;3.33;1.23;;;23.00;92.80;;;;;;4998754;28;20452;-89
2021/07/31 11:00:34;;;;;;;2.50;1.27;;;;;;;;;;4999317;28;20484;-92
2021/07/31 11:03:04;;;;;;;5.30;1.53;;;23.50;93.50;;;;;;4998103;28;20478;-94
2021/07/31 11:06:01;;;;;;;2.40;1.40;;;23.80;94.20;;;;;;4992554;28;20525;-90
2021/07/31 11:08:30;;;;;;;2.40;1.67;;;25.10;94.70;;;;;;4994861;28;20598;-93
2021/07/31 11:10:59;;;;;;;2.30;1.37;;;25.00;92.40;;;;;;4990405;28;20928;-93
2021/07/31 11:13:52;;;;;;;3.30;1.50;;;25.00;93.10;;;;;;4988994;28;20452;-93
2021/07/31 11:16:21;;;;;;;4.73;1.40;;;24.10;91.50;;;;;;4994516;28;20453;-92
2021/07/31 11:18:50;;;;;;;5.50;1.73;;;24.10;92.00;;;;;;5007072;28;20448;-90
2021/07/31 11:21:19;;;;;;;4.63;1.40;;;24.50;93.10;;;;;;4998279;28;20457;-90
2021/07/31 11:23:49;;;;;;;1.90;1.57;;;24.40;93.10;;;;;;4991691;28;20484;-93
2021/07/31 11:26:42;;;;;;;2.60;1.43;;;24.20;92.40;;;;;;4994688;28;20437;-92
2021/07/31 11:29:12;;;;;;;2.87;1.80;;;23.90;93.30;;;;;;4997630;28;20453;-92
2021/07/31 11:31:44;;;;;;;5.50;1.77;;;23.40;99.90;;;;;;4998860;28;20995;-94
2021/07/31 11:34:13;;;;;;;4.63;1.63;;;24.10;99.90;;;;;;4991745;28;20485;-89
2021/07/31 11:36:42;;;;;;;1.80;1.60;;;23.80;99.90;;;;;;4992168;28;20937;-91
2021/07/31 11:39:10;;;;;;;2.80;1.43;;;23.80;93.70;;;;;;4990903;28;20512;-91
2021/07/31 11:41:42;;;;;;;3.47;1.80;;;23.50;99.90;;;;;;4993630;28;20965;-90
2021/07/31 11:44:10;;;;;;;3.63;2.00;;;22.60;99.90;;;;;;4993350;28;20988;-89
2021/07/31 11:46:39;;;;;;;4.03;1.70;;;23.00;93.80;;;;;;4993609;28;20960;-90
2021/07/31 11:49:08;;;;;;;1.50;1.33;;;24.00;91.90;;;;;;4997818;28;21016;-88
2021/07/31 11:51:45;;;;;;;2.60;1.63;;;24.30;99.90;;;;;;5000575;28;20461;-88
2021/07/31 11:54:12;;;;;;;1.47;1.20;;;;;;;;;;4993614;28;20854;-91
2021/07/31 11:56:40;;;;;;;3.13;1.93;;;;;;;;;;4995564;28;20449;-91
2021/07/31 11:59:08;;;;;;;1.70;1.30;;;;;;;;;;4994976;28;20469;-88
2021/07/31 12:01:36;;;;;;;3.80;1.70;;;;;;;;;;4998178;28;20503;-92
2021/07/31 12:04:03;;;;;;;3.43;2.03;;;;;;;;;;4998882;28;20481;-93
2021/07/31 12:06:53;;;;;;;5.30;1.60;;;;;;;;;;4994988;28;20461;-93
2021/07/31 12:09:22;;;;;;;3.50;1.37;;;28.60;93.80;;;;;;4994677;28;20457;-92
2021/07/31 12:11:50;;;;;;;4.10;1.47;;;27.30;92.40;;;;;;4997857;28;20457;-92
2021/07/31 12:14:44;;;;;;;2.40;1.53;;;26.10;99.30;;;;;;4998590;28;20946;-89
2021/07/31 12:17:22;;;;;;;1.57;1.17;;;25.90;96.20;;;;;;4994891;28;20461;-88
2021/07/31 12:19:52;;;;;;;2.03;1.50;;;26.30;94.20;;;;;;4993701;28;20604;-91
2021/07/31 12:22:22;;;;;;;3.13;1.60;;;26.20;89.20;;;;;;4999428;28;20823;-89
2021/07/31 12:25:23;;;;;;;1.17;1.07;;;24.40;86.40;;;;;;5000618;28;20492;-91
2021/07/31 12:27:55;;;;;;;4.90;2.13;;;24.60;88.80;;;;;;4965791;28;20458;-93
2021/07/31 12:30:27;;;;;;;2.70;1.80;;;24.40;88.50;;;;;;4957031;28;20479;-90
2021/07/31 12:32:57;;;;;;;4.63;1.47;;;;;;;;;;4975458;28;20457;-89
2021/07/31 12:35:37;;;;;;;1.93;1.47;;;25.10;99.90;;;;;;5000526;28;20476;-91
2021/07/31 12:38:08;;;;;;;2.30;1.43;;;26.90;84.80;;;;;;5001414;28;20444;-90
2021/07/31 12:40:35;;;;;;;2.30;1.43;;;;;;;;;;5005106;28;20449;-91
2021/07/31 12:43:02;;;;;;;2.57;1.67;;;;;;;;;;5001948;28;20468;-92
2021/07/31 12:45:30;;;;;;;3.23;1.23;;;;;;;;;;4995811;28;20500;-92
2021/07/31 12:47:57;;;;;;;2.03;1.23;;;;;;;;;;4995033;28;20464;-92
2021/07/31 12:50:25;;;;;;;3.50;1.60;;;;;;;;;;5001747;28;20473;-91
2021/07/31 12:52:52;;;;;;;1.50;1.30;;;;;;;;;;5014843;28;20445;-90
2021/07/31 12:55:21;;;;;;;3.23;1.37;;;;;;;;;;5009505;28;20444;-93
2021/07/31 12:57:49;;;;;;;5.17;1.47;;;;;;;;;;5006006;28;20461;-92
2021/07/31 13:00:17;;;;;;;2.63;1.53;;;24.50;99.90;;;;;;5001032;28;20449;-90
2021/07/31 13:02:44;;;;;;;5.53;1.87;;;;;;;;;;4995628;28;20445;-88
2021/07/31 13:05:11;;;;;;;3.77;1.70;;;26.30;99.90;;;;;;4995454;28;20500;-88
2021/07/31 13:07:42;;;;;;;2.67;1.70;;;26.10;88.00;;;;;;4996973;28;20449;-90
2021/07/31 13:10:09;;;;;;;4.87;1.60;;;25.70;89.50;;;;;;4999232;28;20462;-96
2021/07/31 13:12:38;;;;;;;2.70;1.40;;;25.10;90.00;;;;;;5000201;28;20529;-92
2021/07/31 13:15:06;;;;;;;2.67;1.50;;;24.50;99.90;;;;;;4999750;28;20452;-94
2021/07/31 13:17:33;;;;;;;3.57;1.97;;;;;;;;;;4995341;28;20434;-92
2021/07/31 13:20:01;;;;;;;2.10;1.40;;;;;;;;;;4997717;28;20826;-94
2021/07/31 13:22:28;;;;;;;2.63;1.93;;;;;;;;;;4998810;28;20460;-93
2021/07/31 13:24:58;;;;;;;2.90;1.40;;;24.20;92.80;;;;;;5000611;28;21015;-95
2021/07/31 13:30:25;;;;;;;4.70;1.80;;;;;;;;;;4977564;28;20846;-94
2021/07/31 13:33:22;;;;;;;3.90;2.10;;;25.20;86.40;;;;;;4982709;28;20964;-92
2021/07/31 13:35:57;;;;;;;3.63;1.60;;;;;;;;;;4981793;28;20450;-94
2021/07/31 13:38:29;;;;;;;4.53;1.57;;;;;;;;;;4985982;28;20473;-93
2021/07/31 13:40:56;;;;;;;3.40;1.30;;;;;;;;;;4987527;28;20530;-94
2021/07/31 13:43:49;;;;;;;1.63;1.37;;;24.10;91.20;;;;;;4989804;28;20454;-93
2021/07/31 13:46:18;;;;;;;2.40;1.40;;;;;;;;;;4999009;28;20543;-94
2021/07/31 13:48:48;;;;;;;1.57;1.30;;;24.00;92.10;;;;;;5021810;23;20558;-93
2021/07/31 13:51:16;;;;;;;2.50;1.40;;;;;;;;;;4991278;28;20451;-92
2021/07/31 13:53:43;;;;;;;4.40;2.10;;;;;;;;;;5020388;28;20455;-92
2021/07/31 13:56:11;;;;;;;4.60;1.70;;;;;;;;;;5025396;28;20444;-93
2021/07/31 13:58:49;;;;;;;3.93;1.90;;;;;;;;;;5023638;28;20452;-92
2021/07/31 14:01:16;;;;;;;3.70;1.80;;;;;;;;;;5011403;28;20462;-91
2021/07/31 14:03:43;;;;;;;3.23;1.73;;;;;;;;;;5012283;28;20449;-93
2021/07/31 14:06:10;;;;;;;3.33;1.73;;;;;;;;;;5020687;28;20492;-93
2021/07/31 14:08:37;;;;;;;1.23;1.13;;;;;;;;;;5022144;28;20472;-91
2021/07/31 14:11:05;;;;;;;2.20;1.50;;;25.60;99.90;;;;;;5015743;28;20916;-88
2021/07/31 14:13:33;;;;;;;4.20;1.47;;;;;;;;;;5013874;28;20441;-92
2021/07/31 14:16:01;;;;;;;3.57;1.37;;;26.00;88.80;;;;;;5021848;28;20826;-95